PST,Max TemperatureF,Mean TemperatureF,Min TemperatureF,Max Dew PointF,MeanDew PointF,Min DewpointF,Max Humidity, Mean Humidity, Min Humidity, Max Sea Level PressureIn, Mean Sea Level PressureIn, Min Sea Level PressureIn, Max VisibilityMiles, Mean VisibilityMiles, Min VisibilityMiles, Max Wind SpeedMPH, Mean Wind SpeedMPH, Max Gust SpeedMPH,PrecipitationIn, CloudCover, Events, WindDirDegrees
2013-1-1,37,30,24,34,28,21,100,90,75,30.52,30.46,30.38,10,4,0,5,0,,0.00,5,,346
2013-1-2,46,34,23,36,25,19,100,81,43,30.38,30.30,30.22,10,7,0,12,1,,0.00,2,,63
2013-1-3,46,32,19,34,25,16,100,75,37,30.22,30.16,30.11,10,8,0,12,3,,0.01,3,,148
2013-1-4,48,42,35,43,39,34,100,89,76,30.32,30.25,30.17,10,10,5,12,5,,0.00,6,,132
2013-1-5,42,40,37,39,36,36,93,88,81,30.22,30.17,30.12,10,10,5,9,0,,0.03,8,,101
2013-1-6,44,42,39,39,37,36,93,84,76,30.19,30.13,30.00,10,10,5,17,10,22,0.00,8,,136
2013-1-7,48,44,41,46,41,37,100,86,71,30.17,29.97,29.83,10,9,3,15,8,22,0.20,7,,109
2013-1-8,51,46,41,46,42,37,93,86,76,30.18,29.94,29.72,10,9,3,34,8,43,0.03,8,,147
2013-1-9,50,40,30,46,36,28,93,89,81,29.97,29.80,29.68,10,9,4,18,7,29,0.54,7,,163
2013-1-10,37,30,24,34,29,19,100,91,80,30.13,30.06,29.96,10,6,0,6,0,,0.01,7,,158
2013-1-11,33,26,19,30,23,16,100,89,75,30.35,30.28,30.13,10,6,0,5,0,,0.00,2,,193
2013-1-12,33,26,19,27,21,16,100,86,60,30.47,30.40,30.35,10,8,0,0,0,,0.00,0,,-1
2013-1-13,33,25,17,27,22,16,93,86,60,30.52,30.49,30.47,10,9,0,0,0,,0.00,2,,-1
2013-1-14,33,30,28,30,29,27,93,90,86,30.59,30.53,30.50,10,7,2,5,0,,0.00,8,,210
2013-1-15,41,32,24,34,29,21,93,88,65,30.73,30.69,30.60,10,6,0,5,0,,0.00,5,,12
2013-1-16,41,31,21,34,25,16,100,87,70,30.71,30.62,30.54,10,6,0,5,0,,0.00,3,,345
2013-1-17,35,30,24,34,27,23,100,93,86,30.54,30.42,30.32,6,1,0,4,0,,0.00,8,,0
2013-1-18,33,27,21,32,27,18,100,92,80,30.38,30.33,30.29,1,0,0,0,0,,0.00,8,,-1
2013-1-19,33,30,26,32,28,25,100,94,87,30.42,30.38,30.36,4,1,0,0,0,,0.00,8,,-1
2013-1-20,35,30,26,34,28,25,100,93,87,30.42,30.36,30.29,1,0,0,5,0,,0.00,8,,160
2013-1-21,32,29,26,30,28,25,100,94,86,30.29,30.23,30.16,1,0,0,0,0,,0.00,8,,-1
2013-1-22,35,29,23,34,27,19,100,91,86,30.17,30.05,29.92,10,4,0,0,0,,0.00,4,,-1
2013-1-23,41,37,33,37,35,30,100,91,81,30.15,29.95,29.86,10,9,4,12,1,,0.05,8,,154
2013-1-24,46,40,35,39,37,34,100,84,66,30.23,30.15,30.05,10,10,5,14,3,21,0.03,7,,129
2013-1-25,51,44,37,43,40,36,93,84,66,30.07,30.01,29.94,10,10,7,15,7,20,0.00,6,,154
2013-1-26,42,38,35,37,36,34,93,89,76,30.05,29.95,29.89,10,10,5,13,5,18,0.09,8,,146
2013-1-27,41,38,35,37,36,34,93,90,87,30.06,30.03,30.00,10,9,5,10,3,,0.06,8,,161
2013-1-28,39,37,35,36,34,32,93,92,87,30.09,30.05,30.01,10,8,3,8,2,,0.53,8,,178
2013-1-29,44,40,37,41,38,36,100,91,87,30.35,30.27,30.09,10,8,2,7,1,,0.14,8,,169
2013-1-30,46,42,39,45,42,37,100,93,87,30.40,30.38,30.35,10,5,2,6,1,,0.00,8,,127
2013-1-31,48,45,42,45,43,41,100,92,87,30.40,30.36,30.32,10,9,2,14,3,20,0.01,8,,140